Time;durP1;ratioP1;P1;durP2;ratioP2;P2;SDS_P1;SDS_P2;PMS_P1;PMS_P2;Temp;Humidity;BMP_temperature;BMP_pressure;BME280_temperature;BME280_humidity;BME280_pressure;Samples;Min_cycle;Max_cycle;Signal;HPM_P1;HPM_P2
2021/03/10 00:00:10;;;;;;;3.80;2.60;;;;;;;6.70;41.90;102451.59;1744145;82;21148;-46
2021/03/10 00:02:41;;;;;;;2.70;2.50;;;;;;;6.69;42.22;102450.70;1733764;81;21172;-46
2021/03/10 00:05:11;;;;;;;2.65;2.12;;;;;;;6.68;42.35;102444.22;1731614;82;21140;-45
2021/03/10 00:07:39;;;;;;;3.02;2.27;;;;;;;6.68;42.38;102441.19;1741595;82;21157;-46
2021/03/10 00:10:21;;;;;;;6.53;2.53;;;;;;;6.67;42.11;102445.04;1734562;82;21193;-46
2021/03/10 00:12:48;;;;;;;3.27;2.60;;;;;;;6.67;42.11;102445.04;1739439;82;21864;-46
2021/03/10 00:15:16;;;;;;;2.50;2.25;;;;;;;6.68;42.12;102448.94;1739147;82;21128;-46
2021/03/10 00:17:44;;;;;;;2.90;2.47;;;;;;;6.68;42.05;102449.39;1734493;82;21148;-46
2021/03/10 00:20:16;;;;;;;5.92;2.20;;;;;;;6.64;43.21;102443.66;1735685;82;21497;-46
2021/03/10 00:22:44;;;;;;;2.55;2.15;;;;;;;6.56;44.60;102457.33;1735764;82;21172;-46
2021/03/10 00:25:12;;;;;;;3.65;2.00;;;;;;;6.49;45.70;102456.73;1738225;82;21310;-46
2021/03/10 00:27:41;;;;;;;3.47;2.47;;;;;;;6.43;46.16;102457.89;1747564;82;21128;-45
2021/03/10 00:30:10;;;;;;;4.12;2.08;;;;;;;6.37;46.77;102452.58;1744563;82;21148;-46
2021/03/10 00:32:38;;;;;;;2.80;2.22;;;;;;;6.31;46.96;102449.87;1741578;82;21145;-46
2021/03/10 00:35:26;;;;;;;5.90;2.45;;;;;;;6.25;47.27;102449.73;1738201;82;21287;-46
2021/03/10 00:38:00;;;;;;;3.27;2.12;;;;;;;6.19;47.68;102447.01;1734461;82;21595;-46
2021/03/10 00:40:28;;;;;;;3.70;2.50;;;;;;;6.17;47.92;102448.69;1735651;82;21599;-46
2021/03/10 00:42:56;;;;;;;6.80;3.05;;;;;;;5.98;48.00;102446.50;1736185;82;21589;-47
2021/03/10 00:45:24;;;;;;;3.95;2.92;;;;;;;5.99;48.26;102446.09;1738379;82;21159;-46
2021/03/10 00:47:58;;;;;;;9.28;4.25;;;;;;;6.02;48.21;102447.02;1737597;82;21302;-46
2021/03/10 00:50:28;;;;;;;4.78;3.20;;;;;;;6.00;48.32;102438.36;1744179;82;21151;-47
2021/03/10 00:52:56;;;;;;;5.97;2.87;;;;;;;5.98;48.21;102438.75;1737674;82;21475;-47
2021/03/10 00:55:24;;;;;;;3.95;2.80;;;;;;;5.98;48.13;102442.63;1737668;82;21576;-47
2021/03/10 00:57:52;;;;;;;4.95;2.50;;;;;;;5.98;48.13;102433.58;1743616;82;21168;-46
2021/03/10 01:00:22;;;;;;;3.80;2.37;;;;;;;5.97;48.32;102442.19;1732707;82;21176;-46
2021/03/10 01:02:50;;;;;;;3.20;2.87;;;;;;;5.98;48.54;102439.16;1746143;82;21565;-46
2021/03/10 01:05:18;;;;;;;2.95;2.42;;;;;;;5.94;48.53;102439.92;1744757;82;21172;-46
2021/03/10 01:07:47;;;;;;;3.67;2.67;;;;;;;5.90;48.47;102438.98;1733367;82;21152;-46
2021/03/10 01:10:15;;;;;;;3.87;2.52;;;;;;;5.88;48.54;102434.20;1740975;82;21192;-46
2021/03/10 01:12:44;;;;;;;3.55;2.58;;;;;;;5.85;48.50;102428.98;1738394;82;21148;-46
2021/03/10 01:15:18;;;;;;;3.77;2.25;;;;;;;5.81;48.71;102424.55;1736495;82;21599;-46
2021/03/10 01:17:46;;;;;;;4.08;2.27;;;;;;;5.76;48.86;102424.84;1741950;82;21184;-46
2021/03/10 01:20:18;;;;;;;3.15;2.45;;;;;;;5.72;48.64;102426.89;1734736;82;21167;-46
2021/03/10 01:22:47;;;;;;;4.80;2.55;;;;;;;5.70;48.37;102428.56;1741758;82;21159;-46
2021/03/10 01:25:16;;;;;;;4.58;2.35;;;;;;;5.68;48.67;102427.66;1737619;82;21121;-46
2021/03/10 01:27:44;;;;;;;3.55;2.10;;;;;;;5.67;48.80;102423.30;1737427;82;21160;-47
2021/03/10 01:30:14;;;;;;;3.50;2.10;;;;;;;5.66;48.84;102427.63;1732321;82;21168;-46
2021/03/10 01:32:42;;;;;;;2.27;1.70;;;;;;;5.68;48.63;102420.78;1734832;82;21156;-47
2021/03/10 01:35:13;;;;;;;3.87;2.10;;;;;;;5.68;48.41;102421.20;1742426;82;21584;-46
2021/03/10 01:37:41;;;;;;;3.12;2.00;;;;;;;5.67;48.20;102424.60;1735568;82;21141;-46
2021/03/10 01:40:12;;;;;;;5.37;2.15;;;;;;;5.67;48.14;102420.73;1739009;82;21166;-46
2021/03/10 01:42:41;;;;;;;2.65;1.77;;;;;;;5.70;48.08;102424.69;1738370;82;21751;-46
2021/03/10 01:45:10;;;;;;;4.10;1.90;;;;;;;5.66;47.82;102416.41;1739014;82;21124;-46
2021/03/10 01:47:43;;;;;;;2.58;1.80;;;;;;;5.65;47.64;102426.27;1737422;82;21581;-47
2021/03/10 01:50:14;;;;;;;2.35;1.95;;;;;;;5.64;47.71;102428.41;1740675;82;21165;-46
2021/03/10 01:52:42;;;;;;;2.27;2.00;;;;;;;5.60;47.25;102420.14;1726571;82;21161;-46
2021/03/10 01:55:12;;;;;;;2.50;1.90;;;;;;;5.56;47.21;102425.63;1729561;82;21157;-46
2021/03/10 01:57:40;;;;;;;5.60;2.10;;;;;;;5.54;47.38;102424.71;1718103;82;21180;-46
2021/03/10 02:00:10;;;;;;;4.28;2.17;;;;;;;5.51;47.37;102427.23;1730371;82;21157;-46
2021/03/10 02:02:42;;;;;;;3.45;1.90;;;;;;;5.51;47.46;102420.77;1720121;82;21208;-46
2021/03/10 02:05:16;;;;;;;3.95;1.82;;;;;;;5.51;47.14;102419.48;1718246;82;21181;-46
2021/03/10 02:07:52;;;;;;;3.15;1.80;;;;;;;5.51;46.93;102416.02;1687731;85;21632;-46
2021/03/10 02:11:02;;;;;;;2.77;1.70;;;;;;;5.53;46.77;102411.77;1810049;79;22741;-46
2021/03/10 02:14:03;;;;;;;3.47;1.77;;;;;;;5.49;46.79;102411.23;1783345;80;21212;-46
2021/03/10 02:16:45;;;;;;;6.67;1.80;;;;;;;5.46;46.42;102409.89;1766436;80;21584;-45
2021/03/10 02:19:48;;;;;;;4.40;2.25;;;;;;;5.45;46.58;102414.58;1780048;80;21631;-46
2021/03/10 02:22:41;;;;;;;2.47;1.60;;;;;;;5.44;46.59;102408.98;1783694;80;21152;-46
2021/03/10 02:25:42;;;;;;;3.95;1.95;;;;;;;5.45;46.35;102415.87;1776783;80;21151;-46
2021/03/10 02:28:10;;;;;;;1.83;1.67;;;;;;;5.45;46.58;102412.00;1776925;80;21179;-45
2021/03/10 02:30:41;;;;;;;4.33;1.92;;;;;;;5.42;46.22;102423.55;1776713;80;21294;-46
2021/03/10 02:33:26;;;;;;;2.45;1.85;;;;;;;5.41;46.09;102419.21;1740365;81;21200;-46
2021/03/10 02:36:03;;;;;;;3.58;2.15;;;;;;;5.40;45.77;102422.64;1740814;82;21169;-45
2021/03/10 02:38:31;;;;;;;2.67;1.60;;;;;;;5.39;45.62;102418.30;1715887;82;21170;-45
2021/03/10 02:40:59;;;;;;;3.70;2.30;;;;;;;5.38;45.57;102415.28;1740509;82;21254;-46
2021/03/10 02:43:27;;;;;;;6.17;1.92;;;;;;;5.38;45.65;102424.31;1690936;82;21237;-46
2021/03/10 02:45:55;;;;;;;3.77;1.72;;;;;;;5.37;46.13;102417.38;1719004;82;21153;-46
2021/03/10 02:48:23;;;;;;;3.77;1.95;;;;;;;5.36;45.72;102415.63;1743517;82;21249;-46
2021/03/10 02:50:53;;;;;;;3.25;1.90;;;;;;;5.35;45.46;102418.64;1742018;82;21747;-46
2021/03/10 02:53:21;;;;;;;2.87;1.70;;;;;;;5.34;45.83;102413.42;1715530;82;21165;-46
2021/03/10 02:55:50;;;;;;;2.95;1.60;;;;;;;5.33;45.49;102416.85;1739388;82;21304;-46
2021/03/10 02:58:18;;;;;;;2.92;1.70;;;;;;;5.31;44.98;102417.23;1743130;82;21235;-46
2021/03/10 03:00:46;;;;;;;3.00;1.80;;;;;;;5.31;45.05;102410.37;1739562;82;21130;-46
2021/03/10 03:03:14;;;;;;;1.80;1.40;;;;;;;5.28;44.73;102417.13;1729435;82;21185;-46
2021/03/10 03:05:42;;;;;;;3.42;1.55;;;;;;;5.28;44.57;102412.85;1743521;82;21141;-45
2021/03/10 03:08:10;;;;;;;2.05;1.60;;;;;;;5.28;44.68;102403.82;1743466;82;21367;-45
2021/03/10 03:10:39;;;;;;;3.27;1.47;;;;;;;5.28;44.59;102408.98;1711333;82;21116;-45
2021/03/10 03:13:11;;;;;;;3.37;1.72;;;;;;;5.29;45.18;102407.28;1733075;81;21691;-46
2021/03/10 03:15:47;;;;;;;1.92;1.42;;;;;;;5.33;44.75;102406.12;1777950;79;23216;-45
2021/03/10 03:18:16;;;;;;;5.60;1.93;;;;;;;5.28;44.79;102406.41;1738649;82;21148;-46
2021/03/10 03:20:43;;;;;;;1.85;1.70;;;;;;;5.26;44.71;102403.31;1739396;81;21184;-46
2021/03/10 03:23:11;;;;;;;3.00;1.60;;;;;;;5.26;44.65;102404.20;1740450;82;21148;-46
2021/03/10 03:25:40;;;;;;;3.58;1.52;;;;;;;5.28;45.13;102404.23;1740957;82;21204;-46
2021/03/10 03:28:15;;;;;;;2.67;1.65;;;;;;;5.28;44.63;102401.65;1740974;82;21156;-46
2021/03/10 03:30:44;;;;;;;2.00;1.70;;;;;;;5.28;44.48;102400.36;1736723;82;21774;-46
2021/03/10 03:33:18;;;;;;;2.70;1.92;;;;;;;5.30;44.40;102405.14;1727689;82;21172;-46
2021/03/10 03:35:48;;;;;;;3.27;1.50;;;;;;;5.30;44.33;102399.98;1659394;86;21191;-45
2021/03/10 03:38:16;;;;;;;4.17;1.50;;;;;;;5.29;44.11;102394.38;1624448;88;21153;-46
2021/03/10 03:40:44;;;;;;;3.12;1.70;;;;;;;5.30;44.18;102396.98;1655530;86;21240;-46
2021/03/10 03:43:12;;;;;;;3.40;1.67;;;;;;;5.30;44.15;102388.37;1639415;86;21172;-45
2021/03/10 03:45:40;;;;;;;2.67;1.70;;;;;;;5.31;44.23;102394.00;1661101;86;21145;-46
2021/03/10 03:48:09;;;;;;;8.05;1.60;;;;;;;5.29;44.48;102387.92;1661299;86;21620;-46
2021/03/10 03:50:37;;;;;;;2.12;1.60;;;;;;;5.32;44.55;102387.98;1661214;86;21172;-46
2021/03/10 03:53:05;;;;;;;5.55;1.72;;;;;;;5.29;44.53;102390.51;1585058;88;21185;-46
2021/03/10 03:55:35;;;;;;;1.80;1.30;;;;;;;5.29;44.77;102399.54;1661227;86;21318;-46
2021/03/10 03:58:04;;;;;;;2.30;1.57;;;;;;;5.29;44.73;102403.41;1661497;86;21604;-46
2021/03/10 04:00:32;;;;;;;2.27;1.60;;;;;;;5.28;44.67;102414.14;1661137;86;21176;-46
2021/03/10 04:03:01;;;;;;;2.15;1.52;;;;;;;5.25;44.73;102405.05;1661350;86;21216;-46
2021/03/10 04:05:29;;;;;;;2.75;1.47;;;;;;;5.26;45.01;102408.48;1661259;86;21180;-46
2021/03/10 04:08:00;;;;;;;3.02;1.57;;;;;;;5.28;44.66;102410.68;1734796;82;21144;-45
2021/03/10 04:10:32;;;;;;;3.67;1.75;;;;;;;5.30;44.52;102412.47;1738078;81;21617;-46
2021/03/10 04:13:08;;;;;;;1.72;1.42;;;;;;;5.34;44.48;102405.67;1770825;79;23744;-45
2021/03/10 04:15:37;;;;;;;2.95;1.70;;;;;;;5.29;44.46;102413.73;1734982;82;21184;-46
2021/03/10 04:18:05;;;;;;;3.35;1.92;;;;;;;5.25;44.47;102404.17;1738589;82;21188;-46
2021/03/10 04:20:33;;;;;;;1.75;1.50;;;;;;;5.25;44.40;102408.04;1739961;82;21168;-45
2021/03/10 04:23:02;;;;;;;2.35;1.82;;;;;;;5.25;44.21;102409.33;1734606;82;21541;-46
2021/03/10 04:25:29;;;;;;;4.40;2.00;;;;;;;5.23;44.15;102400.67;1737090;82;21148;-46
2021/03/10 04:27:57;;;;;;;1.87;1.65;;;;;;;5.24;43.84;102395.55;1740239;82;21335;-45
2021/03/10 04:30:25;;;;;;;2.40;1.50;;;;;;;5.24;43.96;102395.95;1731566;82;21159;-46
2021/03/10 04:32:53;;;;;;;2.65;2.00;;;;;;;5.24;43.64;102397.24;1737385;82;21224;-46
2021/03/10 04:35:22;;;;;;;3.55;1.55;;;;;;;5.25;43.64;102395.13;1741038;82;21279;-45
2021/03/10 04:37:50;;;;;;;2.00;1.55;;;;;;;5.25;43.86;102396.02;1734672;82;21152;-45
2021/03/10 04:40:19;;;;;;;3.00;1.92;;;;;;;5.26;44.15;102392.99;1739896;82;21573;-45
2021/03/10 04:42:47;;;;;;;4.55;1.92;;;;;;;5.29;43.75;102398.25;1738127;82;21596;-46
2021/03/10 04:45:16;;;;;;;3.12;2.20;;;;;;;5.31;44.13;102407.78;1738183;82;21224;-46
2021/03/10 04:47:45;;;;;;;2.50;1.60;;;;;;;5.31;43.93;102396.17;1737761;82;21155;-46
2021/03/10 04:50:15;;;;;;;3.47;1.77;;;;;;;5.31;43.57;102394.00;1740490;82;21733;-45
2021/03/10 04:52:44;;;;;;;2.22;1.82;;;;;;;5.31;43.17;102399.16;1736188;82;21295;-46
2021/03/10 04:55:13;;;;;;;3.10;1.52;;;;;;;5.30;43.40;102396.11;1742979;81;21588;-46
2021/03/10 04:57:42;;;;;;;2.62;1.70;;;;;;;5.30;42.99;102402.16;1731751;82;21544;-45
2021/03/10 05:00:12;;;;;;;3.02;1.57;;;;;;;5.28;42.85;102397.77;1731535;82;21276;-46
2021/03/10 05:02:39;;;;;;;2.70;1.75;;;;;;;5.28;43.48;102399.06;1743210;82;21191;-45
2021/03/10 05:05:11;;;;;;;2.52;1.85;;;;;;;5.29;43.50;102393.97;1744433;82;21137;-45
2021/03/10 05:07:41;;;;;;;1.95;1.60;;;;;;;5.30;43.47;102389.66;1736576;82;21129;-45
2021/03/10 05:10:10;;;;;;;3.22;2.00;;;;;;;5.33;43.40;102396.20;1739465;82;21165;-45
2021/03/10 05:12:38;;;;;;;4.45;2.00;;;;;;;5.32;43.31;102399.19;1729834;81;21133;-45
2021/03/10 05:15:07;;;;;;;2.22;1.75;;;;;;;5.33;43.28;102397.49;1724657;82;21113;-46
2021/03/10 05:17:35;;;;;;;3.08;1.75;;;;;;;5.34;43.41;102394.06;1721568;82;21129;-46
2021/03/10 05:20:06;;;;;;;4.97;1.72;;;;;;;5.35;43.77;102397.11;1727550;82;21621;-46
2021/03/10 05:22:34;;;;;;;3.92;1.87;;;;;;;5.37;43.71;102398.91;1724836;81;21218;-46
2021/03/10 05:25:05;;;;;;;2.70;1.70;;;;;;;5.38;43.71;102399.79;1724609;82;21196;-46
2021/03/10 05:27:33;;;;;;;2.30;1.77;;;;;;;5.41;43.81;102405.02;1725948;82;21197;-46
2021/03/10 05:30:05;;;;;;;2.85;2.20;;;;;;;5.47;43.39;102409.03;1730849;82;21118;-46
2021/03/10 05:32:32;;;;;;;7.57;3.97;;;;;;;5.50;43.18;102410.42;1726168;82;21206;-46
2021/03/10 05:35:02;;;;;;;11.88;5.33;;;;;;;5.52;43.70;102408.30;1721991;81;21442;-46
2021/03/10 05:37:30;;;;;;;3.90;2.52;;;;;;;5.55;43.60;102416.55;1724861;82;21150;-45
2021/03/10 05:39:58;;;;;;;17.85;9.60;;;;;;;5.54;43.74;102420.84;1724554;82;21657;-46
2021/03/10 05:42:26;;;;;;;6.47;4.53;;;;;;;5.57;43.72;102418.75;1725103;82;21165;-46
2021/03/10 05:44:54;;;;;;;5.33;3.00;;;;;;;5.57;43.42;102422.63;1723535;82;21168;-46
2021/03/10 05:47:22;;;;;;;9.18;5.28;;;;;;;5.59;42.95;102424.83;1727370;82;21137;-45
2021/03/10 05:49:51;;;;;;;3.25;2.58;;;;;;;5.59;42.86;102427.41;1719244;82;21165;-45
2021/03/10 05:52:22;;;;;;;7.05;3.92;;;;;;;5.61;42.71;102428.32;1730932;82;21296;-46
2021/03/10 05:54:51;;;;;;;7.70;3.45;;;;;;;5.61;42.66;102433.48;1715422;82;21185;-45
2021/03/10 05:57:19;;;;;;;3.52;2.65;;;;;;;5.61;42.76;102428.32;1728589;82;21102;-45
2021/03/10 05:59:48;;;;;;;4.12;2.30;;;;;;;5.64;43.04;102431.00;1719900;81;21177;-46
2021/03/10 06:02:17;;;;;;;5.22;3.15;;;;;;;5.66;42.86;102433.20;1726847;82;21117;-46
2021/03/10 06:04:45;;;;;;;4.12;1.98;;;;;;;5.68;42.65;102434.11;1731048;81;22537;-46
2021/03/10 06:07:23;;;;;;;3.75;2.27;;;;;;;5.68;42.19;102432.81;1726335;82;21161;-46
2021/03/10 06:10:02;;;;;;;3.20;1.75;;;;;;;5.68;41.95;102438.86;1722250;82;21137;-46
2021/03/10 06:12:44;;;;;;;4.28;1.85;;;;;;;5.68;42.24;102440.56;1680674;84;21268;-46
2021/03/10 06:15:14;;;;;;;1.90;1.45;;;;;;;5.70;42.03;102445.35;1677086;85;21299;-46
2021/03/10 06:17:50;;;;;;;4.22;2.02;;;;;;;5.73;41.87;102449.28;1676524;85;21625;-46
2021/03/10 06:20:30;;;;;;;3.27;1.80;;;;;;;5.73;42.14;102446.70;1665264;85;21186;-46
2021/03/10 06:22:58;;;;;;;2.40;1.70;;;;;;;5.76;42.05;102445.50;1640871;87;21615;-44
2021/03/10 06:25:37;;;;;;;4.60;1.70;;;;;;;5.81;42.20;102449.50;1639380;87;21633;-47
2021/03/10 06:28:05;;;;;;;2.42;1.70;;;;;;;5.84;41.92;102442.72;1643410;87;21171;-44
2021/03/10 06:30:41;;;;;;;2.98;1.67;;;;;;;5.87;41.59;102442.80;1646946;87;21271;-45
2021/03/10 06:33:22;;;;;;;4.33;2.05;;;;;;;5.92;41.56;102451.52;1636052;87;21183;-45
2021/03/10 06:35:51;;;;;;;3.55;2.02;;;;;;;5.93;41.53;102450.70;1676267;85;21606;-45
2021/03/10 06:38:20;;;;;;;5.22;2.22;;;;;;;5.98;41.26;102449.08;1676649;84;21169;-47
2021/03/10 06:40:59;;;;;;;2.10;1.65;;;;;;;6.04;41.93;102449.22;1676488;85;21283;-47
2021/03/10 06:43:39;;;;;;;3.22;1.98;;;;;;;6.08;41.74;102449.75;1679081;85;21190;-47
2021/03/10 06:46:13;;;;;;;3.62;2.20;;;;;;;6.09;41.85;102451.92;1671428;85;21202;-47
2021/03/10 06:48:57;;;;;;;2.92;2.00;;;;;;;6.11;41.54;102451.13;1677454;85;21178;-47
2021/03/10 06:51:31;;;;;;;7.72;2.10;;;;;;;6.17;41.39;102448.69;1814190;79;22671;-46
2021/03/10 06:53:59;;;;;;;2.50;2.02;;;;;;;6.13;41.49;102455.91;1806795;78;21563;-46
2021/03/10 06:56:29;;;;;;;4.78;2.20;;;;;;;6.13;41.55;102445.58;1813836;78;21167;-46
2021/03/10 06:59:03;;;;;;;4.30;1.92;;;;;;;6.14;41.38;102450.33;1810086;78;21144;-47
2021/03/10 07:01:42;;;;;;;3.05;1.50;;;;;;;6.15;41.23;102450.36;1810086;78;21595;-46
2021/03/10 07:04:12;;;;;;;4.92;1.85;;;;;;;6.16;40.87;102457.26;1827297;78;21191;-46
2021/03/10 07:06:40;;;;;;;2.62;1.47;;;;;;;6.18;40.72;102458.17;1825496;78;21139;-46
2021/03/10 07:09:13;;;;;;;2.77;1.52;;;;;;;6.19;40.60;102465.10;1822840;78;21179;-46
2021/03/10 07:11:42;;;;;;;3.52;1.70;;;;;;;6.22;40.53;102470.32;1821571;78;21383;-45
2021/03/10 07:14:13;;;;;;;3.12;1.82;;;;;;;6.24;40.55;102467.39;1820482;78;21312;-46
2021/03/10 07:16:47;;;;;;;3.20;2.00;;;;;;;6.30;40.28;102458.48;1792262;79;27944;-46
2021/03/10 07:19:14;;;;;;;2.37;1.62;;;;;;;6.30;40.50;102461.06;1769323;80;21273;-46
2021/03/10 07:21:53;;;;;;;2.42;1.80;;;;;;;6.35;40.28;102456.84;1772714;80;21144;-46
2021/03/10 07:24:38;;;;;;;3.65;1.52;;;;;;;6.35;40.18;102460.73;1771811;80;21318;-46
2021/03/10 07:27:08;;;;;;;4.15;1.67;;;;;;;6.33;39.70;102459.82;1772241;80;21183;-46
2021/03/10 07:29:37;;;;;;;4.08;1.85;;;;;;;6.30;40.01;102455.01;1768794;80;21583;-46
2021/03/10 07:32:07;;;;;;;4.67;1.85;;;;;;;6.28;40.32;102452.40;1772088;80;21155;-46
2021/03/10 07:34:37;;;;;;;3.75;1.60;;;;;;;6.27;40.07;102451.93;1772824;80;21148;-46
2021/03/10 07:37:15;;;;;;;3.08;1.65;;;;;;;6.25;39.49;102444.56;1730178;83;21221;-46
2021/03/10 07:39:44;;;;;;;3.70;1.85;;;;;;;6.23;40.27;102446.23;1697084;84;21214;-46
2021/03/10 07:42:14;;;;;;;6.33;2.58;;;;;;;6.20;39.98;102440.98;1696276;84;21186;-46
2021/03/10 07:44:57;;;;;;;7.03;1.98;;;;;;;6.20;39.86;102443.56;1820044;79;22903;-46
2021/03/10 07:47:25;;;;;;;2.75;1.92;;;;;;;6.16;39.79;102453.38;1793139;80;21308;-46
2021/03/10 07:50:01;;;;;;;2.75;1.70;;;;;;;6.15;39.95;102454.23;1793041;80;21116;-47
2021/03/10 07:52:30;;;;;;;3.17;1.77;;;;;;;6.13;40.26;102458.50;1792455;80;21160;-46
2021/03/10 07:55:01;;;;;;;4.53;1.65;;;;;;;6.13;40.44;102459.79;1758384;81;21184;-46
2021/03/10 07:57:29;;;;;;;7.17;2.15;;;;;;;6.14;40.76;102451.18;1739860;82;21152;-46
2021/03/10 08:00:03;;;;;;;2.27;1.85;;;;;;;6.15;40.63;102450.77;1738968;81;21287;-46
2021/03/10 08:02:46;;;;;;;10.00;1.95;;;;;;;6.16;40.55;102459.00;1726782;82;21170;-46
2021/03/10 08:05:25;;;;;;;2.05;1.37;;;;;;;6.16;40.32;102452.09;1661999;86;21204;-46
2021/03/10 08:08:15;;;;;;;10.05;3.33;;;;;;;6.21;40.42;102446.63;1771428;79;23049;-46
2021/03/10 08:10:45;;;;;;;5.67;2.27;;;;;;;6.16;40.90;102445.62;1733778;82;21223;-46
2021/03/10 08:13:20;;;;;;;3.67;1.80;;;;;;;6.18;40.62;102446.53;1731946;82;21599;-46
2021/03/10 08:15:49;;;;;;;4.62;2.02;;;;;;;6.18;40.52;102444.39;1705516;84;21163;-46
2021/03/10 08:18:20;;;;;;;4.42;2.00;;;;;;;6.09;40.62;102439.88;1728102;83;21176;-47
2021/03/10 08:20:49;;;;;;;2.58;1.95;;;;;;;6.16;40.37;102435.29;1705728;84;21199;-47
2021/03/10 08:23:17;;;;;;;6.67;2.33;;;;;;;6.16;40.10;102432.70;1728068;83;21610;-47
2021/03/10 08:25:51;;;;;;;3.40;1.75;;;;;;;6.13;40.53;102438.23;1705702;84;21183;-47
2021/03/10 08:28:19;;;;;;;6.92;2.15;;;;;;;6.13;40.76;102439.11;1703068;83;21386;-48
2021/03/10 08:30:47;;;;;;;5.10;2.40;;;;;;;6.15;40.57;102440.02;1723159;83;21165;-47
2021/03/10 08:33:15;;;;;;;5.67;2.90;;;;;;;6.18;40.41;102434.91;1705528;84;21178;-47
2021/03/10 08:35:51;;;;;;;5.33;2.33;;;;;;;6.20;40.30;102439.69;1727886;83;21186;-47
2021/03/10 08:38:19;;;;;;;6.17;2.12;;;;;;;6.23;40.84;102437.19;1705435;84;21336;-47
2021/03/10 08:40:47;;;;;;;4.22;2.47;;;;;;;6.25;40.44;102436.80;1693464;84;21155;-47
2021/03/10 08:43:18;;;;;;;10.63;2.17;;;;;;;6.24;40.66;102432.91;1728074;83;21161;-47
2021/03/10 08:45:46;;;;;;;6.08;2.35;;;;;;;6.23;40.93;102430.73;1727913;83;21198;-45
2021/03/10 08:48:14;;;;;;;5.75;2.42;;;;;;;6.22;40.53;102431.55;1699934;84;21206;-45
2021/03/10 08:50:45;;;;;;;3.50;2.33;;;;;;;6.22;40.27;102426.37;1728097;83;21138;-45
2021/03/10 08:53:24;;;;;;;3.17;2.08;;;;;;;6.29;40.17;102425.69;1807656;78;21682;-47
2021/03/10 08:55:51;;;;;;;;;;;;;;;6.27;40.57;102423.91;1773816;80;21136;-46
2021/03/10 08:58:19;;;;;;;2.87;2.12;;;;;;;6.32;40.84;102427.48;1764150;80;20129;-46
2021/03/10 09:00:50;;;;;;;5.12;1.90;;;;;;;6.35;40.47;102428.41;1771550;80;21128;-46
2021/03/10 09:03:20;;;;;;;4.97;2.50;;;;;;;6.37;40.24;102431.91;1759778;80;21151;-47
2021/03/10 09:05:51;;;;;;;3.70;2.20;;;;;;;6.38;39.92;102424.61;1770599;80;21124;-46
2021/03/10 09:08:23;;;;;;;6.20;2.45;;;;;;;6.40;39.96;102433.28;1765965;80;21422;-46
2021/03/10 09:10:55;;;;;;;7.97;2.85;;;;;;;6.38;39.52;102426.31;1746796;82;21108;-46
2021/03/10 09:13:32;;;;;;;4.30;2.27;;;;;;;6.40;39.57;102410.42;1800861;79;23464;-46
2021/03/10 09:16:09;;;;;;;4.87;2.40;;;;;;;6.34;39.47;102421.51;1776804;80;21163;-47
2021/03/10 09:18:39;;;;;;;6.58;2.95;;;;;;;6.31;39.36;102421.42;1776348;80;21125;-47
2021/03/10 09:21:07;;;;;;;3.52;2.33;;;;;;;6.31;39.37;102422.72;1776942;80;21133;-46
2021/03/10 09:23:38;;;;;;;3.67;1.92;;;;;;;6.31;39.12;102426.59;1775930;80;21137;-47
2021/03/10 09:26:08;;;;;;;3.55;2.37;;;;;;;6.29;39.00;102417.94;1778263;80;21163;-46
2021/03/10 09:28:42;;;;;;;3.87;2.37;;;;;;;6.28;38.82;102420.50;1764240;80;21549;-47
2021/03/10 09:31:30;;;;;;;2.30;2.10;;;;;;;6.29;38.60;102428.28;1809395;79;23041;-46
2021/03/10 09:34:06;;;;;;;8.08;2.95;;;;;;;6.26;38.85;102428.22;1785072;80;21176;-46
2021/03/10 09:36:41;;;;;;;4.80;2.30;;;;;;;6.29;38.82;102424.81;1770811;80;21125;-46
2021/03/10 09:39:11;;;;;;;5.42;3.00;;;;;;;6.32;39.30;102428.36;1723605;83;21169;-46
2021/03/10 09:41:51;;;;;;;3.20;2.52;;;;;;;6.42;38.95;102419.08;1809744;79;22827;-46
2021/03/10 09:44:23;;;;;;;5.80;2.67;;;;;;;6.43;39.14;102415.22;1777985;80;21156;-46
2021/03/10 09:46:52;;;;;;;6.25;2.40;;;;;;;6.51;38.96;102416.70;1777453;80;21144;-46
2021/03/10 09:49:21;;;;;;;2.65;2.20;;;;;;;6.59;39.00;102414.70;1776560;80;21587;-47
2021/03/10 09:51:51;;;;;;;3.12;1.90;;;;;;;6.68;38.78;102412.73;1777194;80;21144;-46
2021/03/10 09:54:21;;;;;;;3.25;2.30;;;;;;;6.76;38.63;102412.91;1777042;80;21182;-47
2021/03/10 09:56:56;;;;;;;3.87;2.40;;;;;;;6.82;38.35;102418.20;1777926;80;21168;-46
2021/03/10 09:59:32;;;;;;;3.12;2.17;;;;;;;6.85;38.05;102418.24;1781273;80;21321;-46
2021/03/10 10:02:02;;;;;;;5.37;2.83;;;;;;;6.87;38.35;102419.14;1782402;80;21144;-47
2021/03/10 10:04:32;;;;;;;7.03;2.75;;;;;;;6.88;38.06;102414.02;1717315;82;21667;-47
2021/03/10 10:07:03;;;;;;;4.55;2.50;;;;;;;6.89;37.68;102414.88;1714983;83;21200;-47
2021/03/10 10:09:33;;;;;;;5.92;2.70;;;;;;;6.90;37.88;102408.45;1705740;83;21215;-47
2021/03/10 10:12:04;;;;;;;4.35;2.55;;;;;;;6.91;38.10;102409.30;1713231;83;21651;-47
2021/03/10 10:14:37;;;;;;;8.85;2.90;;;;;;;6.91;37.48;102402.84;1714328;83;21243;-47
2021/03/10 10:17:05;;;;;;;4.25;2.70;;;;;;;6.90;37.57;102404.58;1716719;83;21159;-47
2021/03/10 10:19:34;;;;;;;5.30;2.80;;;;;;;6.91;37.36;102403.72;1695528;83;21251;-46
2021/03/10 10:22:02;;;;;;;4.72;2.22;;;;;;;6.91;37.88;102402.84;1713796;83;21628;-47
2021/03/10 10:24:31;;;;;;;4.62;2.75;;;;;;;6.87;37.54;102404.91;1715334;83;21160;-48
2021/03/10 10:27:01;;;;;;;5.50;3.17;;;;;;;6.84;38.23;102403.13;1711896;83;21354;-47
2021/03/10 10:29:29;;;;;;;6.37;3.52;;;;;;;6.83;37.66;102401.81;1743671;80;21160;-47
2021/03/10 10:31:57;;;;;;;6.15;3.45;;;;;;;6.83;37.46;102394.05;1777685;80;21211;-47
2021/03/10 10:34:27;;;;;;;7.60;4.17;;;;;;;6.85;38.03;102392.37;1783101;80;21152;-47
2021/03/10 10:36:55;;;;;;;4.37;3.15;;;;;;;6.86;37.50;102392.84;1781778;80;21605;-47
2021/03/10 10:39:31;;;;;;;5.87;3.70;;;;;;;6.88;37.61;102389.86;1785469;79;28344;-46
2021/03/10 10:42:00;;;;;;;9.48;4.17;;;;;;;6.85;37.63;102387.19;1777901;80;21121;-46
2021/03/10 10:44:29;;;;;;;6.35;2.95;;;;;;;6.89;37.49;102394.17;1787580;80;21290;-47
2021/03/10 10:46:57;;;;;;;4.03;3.10;;;;;;;6.90;37.91;102389.46;1720154;83;21140;-47
2021/03/10 10:49:25;;;;;;;5.70;3.65;;;;;;;6.92;37.36;102387.78;1722997;83;21140;-47
2021/03/10 10:51:54;;;;;;;6.80;2.98;;;;;;;6.90;37.67;102388.17;1710243;83;21152;-47
2021/03/10 10:54:24;;;;;;;6.25;3.40;;;;;;;6.87;37.53;102383.80;1722616;82;21914;-47
2021/03/10 10:56:53;;;;;;;10.23;3.83;;;;;;;6.84;37.99;102383.73;1728995;82;21198;-48
2021/03/10 10:59:23;;;;;;;6.70;3.55;;;;;;;6.82;37.94;102381.98;1720743;82;21636;-48
2021/03/10 11:01:51;;;;;;;4.65;3.27;;;;;;;6.81;37.83;102377.62;1729706;82;21136;-47
2021/03/10 11:04:19;;;;;;;5.95;3.67;;;;;;;6.86;38.15;102379.45;1719321;82;21180;-47
2021/03/10 11:06:48;;;;;;;7.22;3.65;;;;;;;6.91;38.09;102367.91;1731138;82;21172;-47
2021/03/10 11:09:16;;;;;;;6.87;3.62;;;;;;;6.91;37.70;102369.20;1725936;82;21192;-47
2021/03/10 11:11:46;;;;;;;5.53;3.77;;;;;;;6.92;37.87;102364.07;1726881;82;21296;-46
2021/03/10 11:14:13;;;;;;;6.00;4.12;;;;;;;6.96;38.17;102364.58;1726393;82;21149;-47
2021/03/10 11:16:46;;;;;;;5.17;4.30;;;;;;;6.96;38.14;102352.94;1724994;82;21741;-47
2021/03/10 11:19:16;;;;;;;6.97;3.75;;;;;;;6.98;38.01;102352.95;1718928;82;21612;-47
2021/03/10 11:21:46;;;;;;;6.45;4.75;;;;;;;7.00;37.95;102348.67;1724759;82;21176;-46
2021/03/10 11:24:15;;;;;;;7.03;4.28;;;;;;;6.95;38.07;102347.70;1733662;82;21128;-48
2021/03/10 11:26:44;;;;;;;7.97;3.98;;;;;;;6.91;38.19;102344.20;1699291;82;21218;-47
2021/03/10 11:29:14;;;;;;;5.17;4.03;;;;;;;6.90;38.58;102341.59;1721215;82;21167;-47
2021/03/10 11:31:42;;;;;;;7.25;4.35;;;;;;;6.90;38.43;102341.17;1719294;82;21163;-46
2021/03/10 11:34:12;;;;;;;7.30;3.98;;;;;;;6.87;37.92;102338.93;1725237;82;21167;-46
2021/03/10 11:36:41;;;;;;;5.50;3.60;;;;;;;6.87;37.92;102335.05;1728028;82;21192;-46
2021/03/10 11:39:10;;;;;;;9.78;3.45;;;;;;;6.88;38.24;102327.34;1714933;82;21188;-46
2021/03/10 11:41:38;;;;;;;6.47;3.75;;;;;;;6.88;38.63;102327.76;1714904;83;21164;-46
2021/03/10 11:44:07;;;;;;;6.22;4.00;;;;;;;6.87;38.68;102328.58;1712975;83;21589;-46
2021/03/10 11:46:36;;;;;;;6.75;4.35;;;;;;;6.89;38.70;102326.89;1702182;83;21172;-46
2021/03/10 11:49:05;;;;;;;6.55;4.15;;;;;;;6.91;38.26;102326.50;1761792;81;21133;-46
2021/03/10 11:51:34;;;;;;;7.83;4.30;;;;;;;6.90;38.16;102326.06;1711402;84;21145;-46